createdAt,value
2022-10-05T00:01:45.999Z,12.91
2022-10-05T00:04:15.532Z,12.98
2022-10-05T00:06:47.689Z,12.97
2022-10-05T00:09:23.085Z,12.97
2022-10-05T00:11:51.123Z,12.98
2022-10-05T00:14:31.594Z,13.04
2022-10-05T00:16:58.350Z,13.03
2022-10-05T00:19:33.051Z,13.04
2022-10-05T00:22:09.552Z,13.02
2022-10-05T00:24:36.176Z,12.99
2022-10-05T00:27:18.131Z,12.92
2022-10-05T00:29:46.185Z,12.88
2022-10-05T00:32:13.032Z,12.85
2022-10-05T00:34:39.734Z,12.91
2022-10-05T00:37:06.627Z,12.97
2022-10-05T00:39:36.049Z,12.93
2022-10-05T00:42:21.300Z,12.92
2022-10-05T00:45:14.842Z,12.87
2022-10-05T00:47:50.775Z,12.90
2022-10-05T00:50:47.281Z,12.92
2022-10-05T00:53:44.906Z,12.92
2022-10-05T00:56:37.065Z,12.92
2022-10-05T00:59:22.728Z,12.96
2022-10-05T01:02:20.217Z,12.96
2022-10-05T01:05:09.414Z,12.95
2022-10-05T01:07:52.065Z,13.00
2022-10-05T01:10:27.772Z,13.04
2022-10-05T01:12:54.373Z,12.99
2022-10-05T01:15:54.322Z,13.02
2022-10-05T01:18:45.331Z,13.03
2022-10-05T01:21:20.468Z,13.02
2022-10-05T01:24:20.480Z,13.01
2022-10-05T01:27:09.512Z,13.07
2022-10-05T01:30:06.962Z,13.03
2022-10-05T01:32:48.414Z,13.10
2022-10-05T01:35:29.514Z,13.15
2022-10-05T01:38:01.311Z,13.13
2022-10-05T01:40:36.567Z,13.04
2022-10-05T01:43:09.207Z,13.04
2022-10-05T01:45:38.782Z,13.05
2022-10-05T01:48:17.359Z,13.01
2022-10-05T01:51:02.159Z,13.09
2022-10-05T01:53:37.950Z,13.05
2022-10-05T01:56:30.304Z,13.05
2022-10-05T01:59:29.751Z,13.05
2022-10-05T02:02:05.094Z,13.09
2022-10-05T02:05:01.517Z,13.03
2022-10-05T02:07:46.779Z,13.02
2022-10-05T02:10:37.378Z,13.03
2022-10-05T02:13:12.818Z,12.98
2022-10-05T02:15:46.303Z,12.97
2022-10-05T02:18:28.898Z,12.91
2022-10-05T02:20:59.099Z,12.94
2022-10-05T02:23:32.912Z,13.01
2022-10-05T02:26:01.514Z,13.01
2022-10-05T02:28:55.198Z,13.06
2022-10-05T02:31:29.908Z,12.98
2022-10-05T02:34:29.134Z,12.97
2022-10-05T02:37:36.107Z,12.91
2022-10-05T02:40:24.968Z,12.97
2022-10-05T02:43:00.255Z,12.98
2022-10-05T02:45:34.200Z,12.99
2022-10-05T02:48:31.659Z,13.00
2022-10-05T02:51:10.513Z,12.99
2022-10-05T02:54:00.979Z,12.98
2022-10-05T02:57:04.603Z,12.97
2022-10-05T02:59:46.229Z,13.02
2022-10-05T03:02:23.818Z,13.04
2022-10-05T03:05:14.373Z,13.04
2022-10-05T03:08:03.073Z,13.05
2022-10-05T03:10:48.957Z,13.03
2022-10-05T03:13:28.942Z,13.02
2022-10-05T03:16:22.782Z,12.95
2022-10-05T03:18:55.555Z,12.92
2022-10-05T03:21:26.922Z,12.90
2022-10-05T03:24:00.326Z,12.93
2022-10-05T03:26:33.015Z,12.94
2022-10-05T03:29:13.127Z,12.92
2022-10-05T03:31:46.423Z,12.91
2022-10-05T03:34:24.502Z,12.82
2022-10-05T03:37:03.571Z,12.90
2022-10-05T03:39:52.056Z,12.87
2022-10-05T03:42:29.553Z,12.90
2022-10-05T03:45:16.389Z,12.89
2022-10-05T03:47:52.139Z,12.76
2022-10-05T03:50:51.144Z,12.82
2022-10-05T03:53:30.046Z,12.85
2022-10-05T03:56:18.262Z,12.93
2022-10-05T03:59:08.208Z,12.89
2022-10-05T04:01:58.857Z,12.97
2022-10-05T04:04:33.115Z,13.00
2022-10-05T04:07:01.504Z,12.99
2022-10-05T04:09:29.153Z,12.91
2022-10-05T04:12:27.353Z,13.03
2022-10-05T04:15:04.037Z,12.85
2022-10-05T04:17:38.137Z,12.86
2022-10-05T04:20:22.544Z,12.98
2022-10-05T04:22:56.261Z,12.88
2022-10-05T04:25:29.197Z,13.01
2022-10-05T04:28:21.511Z,12.85
2022-10-05T04:30:53.072Z,13.02
2022-10-05T04:33:21.282Z,12.98
2022-10-05T04:36:03.203Z,12.98
2022-10-05T04:38:56.471Z,12.80
2022-10-05T04:41:40.024Z,12.91
2022-10-05T04:44:09.727Z,12.98
2022-10-05T04:46:55.150Z,12.84
2022-10-05T04:49:42.130Z,12.84
2022-10-05T04:52:48.933Z,12.75
2022-10-05T04:55:28.067Z,12.72
2022-10-05T04:58:05.337Z,12.84
2022-10-05T05:00:40.233Z,12.83
2022-10-05T05:03:10.216Z,12.84
2022-10-05T05:05:53.026Z,12.94
2022-10-05T05:08:37.083Z,13.03
2022-10-05T05:11:17.427Z,12.90
2022-10-05T05:14:19.701Z,12.98
2022-10-05T05:17:02.602Z,12.94
2022-10-05T05:20:07.345Z,12.99
2022-10-05T05:22:52.234Z,12.88
2022-10-05T05:25:39.201Z,12.91
2022-10-05T05:28:27.945Z,13.02
2022-10-05T05:31:15.713Z,13.11
2022-10-05T05:34:02.897Z,13.08
2022-10-05T05:36:48.608Z,12.99
2022-10-05T05:39:18.482Z,13.01
2022-10-05T05:41:58.019Z,12.83
2022-10-05T05:44:24.977Z,12.74
2022-10-05T05:47:14.201Z,12.88
2022-10-05T05:49:54.871Z,13.04
2022-10-05T05:52:30.412Z,13.04
2022-10-05T05:55:04.349Z,13.09
2022-10-05T05:57:39.023Z,13.11
2022-10-05T06:00:15.283Z,13.12
2022-10-05T06:03:00.845Z,13.14
2022-10-05T06:05:46.086Z,13.22
2022-10-05T06:08:29.030Z,13.32
2022-10-05T06:11:18.976Z,13.19
2022-10-05T06:13:46.953Z,13.42
2022-10-05T06:16:30.031Z,13.49
2022-10-05T06:19:08.368Z,13.50
2022-10-05T06:21:42.370Z,13.46
2022-10-05T06:24:18.171Z,13.59
2022-10-05T06:27:06.008Z,13.60
2022-10-05T06:30:09.883Z,13.67
2022-10-05T06:32:51.693Z,13.72
2022-10-05T06:35:54.459Z,13.74
2022-10-05T06:39:04.474Z,13.78
2022-10-05T06:41:34.054Z,13.76
2022-10-05T06:44:09.174Z,13.95
2022-10-05T06:46:49.598Z,13.94
2022-10-05T06:50:16.228Z,14.05
2022-10-05T06:53:43.088Z,14.12
2022-10-05T06:56:38.192Z,14.05
2022-10-05T06:59:27.816Z,14.32
2022-10-05T07:02:00.635Z,14.29
2022-10-05T07:04:59.539Z,14.43
2022-10-05T07:07:33.040Z,14.42
2022-10-05T07:10:08.708Z,14.45
2022-10-05T07:12:58.810Z,14.42
2022-10-05T07:15:44.835Z,14.58
2022-10-05T07:18:58.789Z,14.62
2022-10-05T07:21:58.662Z,14.60
2022-10-05T07:24:42.734Z,14.64
2022-10-05T07:27:25.713Z,14.50
2022-10-05T07:30:12.080Z,14.76
2022-10-05T07:33:19.007Z,14.88
2022-10-05T07:36:04.718Z,14.95
2022-10-05T07:38:45.622Z,15.05
2022-10-05T07:41:25.274Z,15.16
2022-10-05T07:44:02.321Z,15.23
2022-10-05T07:46:40.108Z,15.05
2022-10-05T07:49:44.611Z,15.16
2022-10-05T07:52:34.679Z,15.26
2022-10-05T07:55:01.970Z,15.32
2022-10-05T07:57:53.517Z,15.10
2022-10-05T08:00:23.808Z,15.15
2022-10-05T08:02:59.149Z,15.25
2022-10-05T08:05:36.121Z,15.24
2022-10-05T08:08:18.182Z,15.28
2022-10-05T08:10:59.039Z,15.27
2022-10-05T08:13:37.758Z,15.44
2022-10-05T08:16:12.842Z,15.50
2022-10-05T08:19:27.702Z,15.46
2022-10-05T08:22:09.438Z,15.56
2022-10-05T08:24:57.601Z,15.59
2022-10-05T08:27:46.174Z,15.70
2022-10-05T08:30:16.338Z,15.75
2022-10-05T08:33:00.417Z,15.72
2022-10-05T08:35:43.755Z,15.58
2022-10-05T08:38:19.734Z,15.66
2022-10-05T08:41:08.224Z,15.69
2022-10-05T08:44:19.110Z,15.61
2022-10-05T08:46:51.462Z,15.56
2022-10-05T08:49:42.930Z,15.77
2022-10-05T08:52:54.319Z,15.86
2022-10-05T08:55:37.546Z,15.73
2022-10-05T08:58:14.193Z,15.70
2022-10-05T09:00:59.122Z,15.77
2022-10-05T09:03:36.846Z,15.80
2022-10-05T09:06:27.884Z,15.91
2022-10-05T09:09:36.564Z,15.83
2022-10-05T09:12:18.375Z,15.87
2022-10-05T09:15:24.258Z,16.06
2022-10-05T09:18:22.947Z,16.19
2022-10-05T09:21:05.297Z,16.07
2022-10-05T09:23:39.188Z,16.28
2022-10-05T09:26:44.689Z,16.38
2022-10-05T09:29:23.617Z,16.57
2022-10-05T09:32:17.542Z,16.63
2022-10-05T09:35:06.046Z,16.38
2022-10-05T09:37:38.881Z,16.44
2022-10-05T09:40:36.097Z,16.47
2022-10-05T09:43:25.593Z,16.59
2022-10-05T09:46:11.002Z,16.73
2022-10-05T09:49:13.127Z,16.71
2022-10-05T09:52:13.938Z,16.74
2022-10-05T09:55:06.526Z,16.91
2022-10-05T09:58:05.574Z,17.04
2022-10-05T10:00:41.247Z,16.86
2022-10-05T10:03:42.956Z,17.04
2022-10-05T10:06:33.171Z,16.97
2022-10-05T10:09:50.851Z,17.41
2022-10-05T10:12:23.161Z,17.37
2022-10-05T10:15:27.497Z,17.43
2022-10-05T10:18:03.273Z,17.43
2022-10-05T10:20:48.143Z,17.26
2022-10-05T10:23:32.542Z,17.46
2022-10-05T10:26:24.214Z,17.52
2022-10-05T10:29:09.317Z,17.71
2022-10-05T10:31:54.295Z,17.78
2022-10-05T10:34:58.337Z,17.71
2022-10-05T10:37:53.147Z,17.66
2022-10-05T10:41:04.264Z,17.93
2022-10-05T10:43:51.976Z,17.99
2022-10-05T10:46:53.048Z,17.86
2022-10-05T10:49:50.011Z,17.75
2022-10-05T10:52:36.626Z,17.74
2022-10-05T10:55:27.602Z,18.08
2022-10-05T10:58:19.729Z,17.86
2022-10-05T11:01:11.114Z,18.04
2022-10-05T11:03:49.801Z,18.03
2022-10-05T11:06:44.026Z,18.33
2022-10-05T11:09:16.745Z,18.22
2022-10-05T11:12:04.574Z,18.26
2022-10-05T11:14:43.631Z,18.35
2022-10-05T11:17:38.294Z,18.44
2022-10-05T11:20:23.160Z,18.29
2022-10-05T11:23:26.453Z,18.47
2022-10-05T11:26:14.632Z,18.66
2022-10-05T11:29:11.594Z,18.52
2022-10-05T11:32:12.362Z,18.72
2022-10-05T11:34:58.320Z,18.73
2022-10-05T11:37:46.741Z,18.66
2022-10-05T11:41:02.223Z,18.55
2022-10-05T11:43:43.708Z,18.72
2022-10-05T11:46:16.581Z,18.92
2022-10-05T11:48:53.325Z,18.98
2022-10-05T11:51:20.761Z,19.08
2022-10-05T11:54:09.929Z,19.33
2022-10-05T11:56:42.070Z,19.32
2022-10-05T11:59:39.495Z,19.08
2022-10-05T12:02:28.018Z,19.11
2022-10-05T12:05:11.245Z,19.23
2022-10-05T12:07:43.272Z,19.17
2022-10-05T12:10:29.216Z,19.24
2022-10-05T12:13:25.428Z,19.37
2022-10-05T12:15:52.644Z,19.34
2022-10-05T12:18:32.869Z,19.20
2022-10-05T12:21:06.997Z,19.29
2022-10-05T12:23:50.400Z,19.26
2022-10-05T12:26:31.788Z,19.23
2022-10-05T12:29:51.037Z,19.24
2022-10-05T12:32:40.693Z,19.25
2022-10-05T12:35:47.381Z,19.21
2022-10-05T12:38:46.465Z,19.20
2022-10-05T12:41:36.492Z,19.57
2022-10-05T12:44:32.219Z,19.74
2022-10-05T12:47:23.852Z,19.98
2022-10-05T12:50:19.330Z,19.85
2022-10-05T12:53:14.997Z,20.11
2022-10-05T12:56:03.611Z,20.45
2022-10-05T12:58:39.846Z,20.48
2022-10-05T13:01:09.782Z,20.56
2022-10-05T13:03:38.203Z,20.55
2022-10-05T13:06:39.188Z,20.60
2022-10-05T13:09:06.615Z,20.87
2022-10-05T13:11:42.996Z,20.99
2022-10-05T13:14:12.651Z,21.09
2022-10-05T13:17:03.947Z,20.92
2022-10-05T13:19:40.378Z,21.12
2022-10-05T13:23:10.629Z,20.71
2022-10-05T13:26:01.095Z,20.84
2022-10-05T13:28:53.427Z,21.07
2022-10-05T13:31:32.538Z,20.64
2022-10-05T13:34:21.997Z,20.93
2022-10-05T13:37:20.419Z,20.99
2022-10-05T13:40:01.104Z,21.28
2022-10-05T13:42:55.079Z,21.21
2022-10-05T13:45:43.571Z,21.10
2022-10-05T13:48:46.105Z,21.31
2022-10-05T13:51:34.072Z,21.47
2022-10-05T13:54:17.059Z,21.13
2022-10-05T13:57:07.732Z,21.02
2022-10-05T14:00:05.567Z,21.04
2022-10-05T14:02:50.397Z,20.55
2022-10-05T14:05:39.055Z,20.70
2022-10-05T14:08:41.572Z,20.90
2022-10-05T14:11:53.892Z,20.94
2022-10-05T14:14:29.573Z,21.14
2022-10-05T14:17:14.724Z,20.79
2022-10-05T14:19:47.813Z,20.70
2022-10-05T14:22:52.323Z,21.16
2022-10-05T14:26:10.790Z,21.31
2022-10-05T14:33:30.909Z,21.03
2022-10-05T14:36:07.915Z,21.15
2022-10-05T14:39:21.032Z,21.45
2022-10-05T14:42:34.474Z,21.54
2022-10-05T14:45:21.219Z,21.44
2022-10-05T14:51:53.923Z,21.21
2022-10-05T14:54:49.920Z,21.80
2022-10-05T14:58:07.570Z,21.81
2022-10-05T15:01:10.303Z,21.97
2022-10-05T15:04:16.175Z,22.36
2022-10-05T15:07:52.089Z,22.26
2022-10-05T15:10:55.890Z,22.51
2022-10-05T15:14:15.512Z,22.08
2022-10-05T15:17:16.887Z,21.80
2022-10-05T15:20:47.225Z,22.11
2022-10-05T15:23:48.378Z,21.62
2022-10-05T15:27:01.661Z,21.95
2022-10-05T15:30:29.019Z,22.20
2022-10-05T15:33:34.820Z,22.35
2022-10-05T15:36:59.360Z,21.88
2022-10-05T15:39:52.316Z,21.66
2022-10-05T15:42:52.949Z,21.31
2022-10-05T15:46:20.590Z,20.96
2022-10-05T15:49:05.105Z,21.08
2022-10-05T15:52:35.240Z,20.97
2022-10-05T15:56:12.134Z,20.92
2022-10-05T15:59:06.199Z,20.83
2022-10-05T16:01:58.878Z,20.92
2022-10-05T16:05:24.055Z,20.57
2022-10-05T16:08:45.938Z,20.56
2022-10-05T16:12:03.271Z,20.71
2022-10-05T16:15:08.534Z,20.80
2022-10-05T16:18:36.657Z,20.79
2022-10-05T16:21:42.859Z,20.32
2022-10-05T16:24:43.795Z,20.48
2022-10-05T16:31:44.634Z,19.59
2022-10-05T16:35:30.668Z,20.23
2022-10-05T16:38:41.430Z,20.12
2022-10-05T16:44:35.023Z,20.08
2022-10-05T16:47:27.729Z,19.82
2022-10-05T16:50:17.247Z,19.76
2022-10-05T16:52:46.700Z,19.82
2022-10-05T16:55:20.141Z,19.75
2022-10-05T16:57:57.626Z,19.92
2022-10-05T17:00:42.143Z,19.83
2022-10-05T17:03:27.684Z,19.90
2022-10-05T17:06:22.350Z,19.51
2022-10-05T17:09:08.614Z,19.68
2022-10-05T17:11:59.190Z,19.60
2022-10-05T17:15:01.203Z,19.76
2022-10-05T17:18:04.788Z,19.45
2022-10-05T17:20:42.777Z,19.65
2022-10-05T17:23:36.255Z,19.47
2022-10-05T17:26:36.540Z,19.36
2022-10-05T17:29:22.048Z,19.33
2022-10-05T17:32:28.917Z,19.17
2022-10-05T17:35:18.130Z,19.35
2022-10-05T17:38:26.284Z,19.33
2022-10-05T17:41:09.575Z,19.32
2022-10-05T17:44:35.010Z,19.34
2022-10-05T17:48:01.312Z,19.44
2022-10-05T17:51:33.991Z,18.81
2022-10-05T17:54:45.706Z,19.31
2022-10-05T17:57:35.259Z,19.13
2022-10-05T18:00:47.098Z,19.00
2022-10-05T18:03:54.006Z,19.20
2022-10-05T18:06:37.184Z,19.23
2022-10-05T18:09:22.689Z,19.15
2022-10-05T18:12:48.359Z,19.13
2022-10-05T18:15:58.507Z,19.14
2022-10-05T18:18:36.983Z,19.12
2022-10-05T18:21:35.050Z,19.13
2022-10-05T18:24:33.661Z,18.92
2022-10-05T18:27:30.561Z,18.93
2022-10-05T18:30:32.180Z,19.07
2022-10-05T18:36:40.427Z,19.00
2022-10-05T18:40:35.007Z,19.08
2022-10-05T18:43:32.469Z,18.99
2022-10-05T18:46:47.959Z,18.93
2022-10-05T18:50:07.683Z,19.08
2022-10-05T18:53:23.810Z,19.10
2022-10-05T18:56:29.647Z,19.00
2022-10-05T18:59:35.699Z,18.98
2022-10-05T19:06:13.385Z,18.68
2022-10-05T19:09:27.847Z,18.95
2022-10-05T19:12:25.701Z,19.02
2022-10-05T19:15:24.086Z,18.92
2022-10-05T19:18:30.618Z,18.95
2022-10-05T19:21:21.890Z,19.05
2022-10-05T19:24:25.546Z,19.01
2022-10-05T19:27:31.655Z,19.09
2022-10-05T19:30:31.608Z,18.90
2022-10-05T19:33:26.589Z,19.01
2022-10-05T19:36:43.609Z,18.76
2022-10-05T19:39:44.214Z,18.98
2022-10-05T19:42:48.232Z,18.91
2022-10-05T19:45:57.911Z,18.96
2022-10-05T19:48:35.225Z,18.87
2022-10-05T19:51:19.709Z,18.91
2022-10-05T19:54:00.275Z,18.71
2022-10-05T19:56:50.761Z,18.84
2022-10-05T19:59:29.843Z,18.83
2022-10-05T20:02:04.195Z,18.64
2022-10-05T20:04:49.456Z,18.60
2022-10-05T20:07:21.490Z,18.61
2022-10-05T20:09:52.779Z,18.52
2022-10-05T20:12:22.655Z,18.62
2022-10-05T20:15:27.110Z,18.73
2022-10-05T20:18:12.352Z,18.58
2022-10-05T20:20:47.116Z,18.58
2022-10-05T20:23:28.040Z,18.43
2022-10-05T20:26:13.478Z,18.40
2022-10-05T20:28:40.208Z,18.52
2022-10-05T20:31:08.048Z,18.53
2022-10-05T20:33:34.904Z,18.38
2022-10-05T20:36:03.486Z,18.56
2022-10-05T20:38:31.519Z,18.52
2022-10-05T20:40:58.425Z,18.61
2022-10-05T20:43:25.056Z,18.55
2022-10-05T20:45:52.279Z,18.65
2022-10-05T20:48:19.531Z,18.54
2022-10-05T20:50:47.269Z,18.73
2022-10-05T20:53:14.136Z,18.57
2022-10-05T20:55:40.973Z,18.63
2022-10-05T20:58:08.965Z,18.72
2022-10-05T21:00:54.469Z,18.60
2022-10-05T21:03:21.053Z,18.67
2022-10-05T21:05:47.662Z,18.77
2022-10-05T21:08:14.211Z,18.84
2022-10-05T21:10:40.842Z,18.98
2022-10-05T21:13:07.480Z,18.75
2022-10-05T21:15:34.061Z,18.72
2022-10-05T21:18:00.618Z,18.63
2022-10-05T21:20:27.311Z,18.65
2022-10-05T21:22:53.902Z,18.61
2022-10-05T21:25:20.595Z,18.70
2022-10-05T21:27:48.623Z,18.69
2022-10-05T21:30:15.421Z,18.47
2022-10-05T21:32:44.603Z,18.68
2022-10-05T21:35:11.346Z,18.76
2022-10-05T21:37:37.953Z,18.60
2022-10-05T21:40:05.076Z,18.70
2022-10-05T21:42:32.015Z,18.90
2022-10-05T21:44:58.753Z,18.82
2022-10-05T21:47:25.891Z,19.01
2022-10-05T21:49:52.768Z,18.97
2022-10-05T21:52:20.321Z,18.81
2022-10-05T21:54:47.005Z,18.72
2022-10-05T21:57:14.657Z,18.77
2022-10-05T21:59:42.634Z,18.86
2022-10-05T22:02:09.310Z,18.94
2022-10-05T22:04:36.191Z,18.99
2022-10-05T22:07:10.558Z,18.80
2022-10-05T22:09:37.423Z,18.92
2022-10-05T22:12:04.295Z,18.92
2022-10-05T22:14:32.019Z,19.02
2022-10-05T22:16:58.882Z,18.82
2022-10-05T22:19:25.805Z,19.01
2022-10-05T22:21:53.012Z,18.95
2022-10-05T22:24:19.606Z,19.08
2022-10-05T22:26:48.318Z,19.01
2022-10-05T22:29:16.529Z,19.00
2022-10-05T22:31:45.845Z,19.04
2022-10-05T22:34:13.335Z,18.92
2022-10-05T22:36:41.766Z,19.05
2022-10-05T22:39:08.536Z,19.04
2022-10-05T22:41:35.237Z,19.04
2022-10-05T22:44:02.740Z,18.98
2022-10-05T22:46:29.350Z,18.99
2022-10-05T22:48:56.000Z,19.10
2022-10-05T22:51:22.633Z,19.04
2022-10-05T22:53:49.191Z,18.96
2022-10-05T22:56:15.937Z,18.81
2022-10-05T22:58:43.750Z,18.92
2022-10-05T23:01:13.742Z,18.81
2022-10-05T23:03:40.820Z,18.93
2022-10-05T23:06:16.392Z,18.85
2022-10-05T23:08:44.190Z,18.84
2022-10-05T23:11:13.817Z,18.73
2022-10-05T23:13:41.281Z,18.90
2022-10-05T23:16:13.424Z,18.03
2022-10-05T23:18:41.073Z,16.78
2022-10-05T23:21:09.153Z,16.29
2022-10-05T23:23:37.711Z,15.91
2022-10-05T23:26:06.186Z,15.68
2022-10-05T23:28:33.302Z,15.45
2022-10-05T23:31:05.254Z,15.37
2022-10-05T23:33:32.747Z,15.25
2022-10-05T23:35:59.351Z,15.08
2022-10-05T23:38:26.388Z,15.12
2022-10-05T23:40:53.634Z,14.97
2022-10-05T23:43:20.337Z,15.00
2022-10-05T23:45:47.113Z,15.07
2022-10-05T23:48:14.109Z,15.13
2022-10-05T23:50:42.083Z,15.05
2022-10-05T23:53:08.669Z,14.80
2022-10-05T23:55:35.257Z,14.94
2022-10-05T23:58:01.836Z,15.16
